createdAt,value
2023-04-02T00:02:33.841Z,8.68
2023-04-02T00:07:41.540Z,8.64
2023-04-02T00:13:21.911Z,6.64
2023-04-02T00:18:26.403Z,8.10
2023-04-02T00:23:29.304Z,8.18
2023-04-02T00:28:32.086Z,6.52
2023-04-02T00:33:35.472Z,8.23
2023-04-02T00:38:43.739Z,8.24
2023-04-02T00:43:50.765Z,6.00
2023-04-02T00:49:10.708Z,7.09
2023-04-02T00:54:15.941Z,8.64
2023-04-02T00:59:54.689Z,7.30
2023-04-02T01:05:03.576Z,6.18
2023-04-02T01:10:12.559Z,8.03
2023-04-02T01:15:25.619Z,8.76
2023-04-02T01:20:54.101Z,6.73
2023-04-02T01:25:59.962Z,7.37
2023-04-02T01:31:03.914Z,8.67
2023-04-02T01:36:35.162Z,7.50
2023-04-02T01:41:53.124Z,6.72
2023-04-02T01:46:58.888Z,8.50
2023-04-02T01:52:01.871Z,7.69
2023-04-02T01:57:05.491Z,6.62
2023-04-02T02:02:13.521Z,8.02
2023-04-02T02:07:20.605Z,8.73
2023-04-02T02:12:23.448Z,7.38
2023-04-02T02:17:34.567Z,7.61
2023-04-02T02:22:39.656Z,8.64
2023-04-02T02:27:46.038Z,7.03
2023-04-02T02:33:26.222Z,7.28
2023-04-02T02:38:36.358Z,8.20
2023-04-02T02:43:42.126Z,7.87
2023-04-02T02:48:46.943Z,6.82
2023-04-02T02:53:54.127Z,7.79
2023-04-02T02:58:57.077Z,8.06
2023-04-02T03:04:00.862Z,8.38
2023-04-02T03:09:13.479Z,8.17
2023-04-02T03:14:49.255Z,6.99
2023-04-02T03:20:06.553Z,7.96
2023-04-02T03:25:32.154Z,8.39
2023-04-02T03:30:47.157Z,6.86
2023-04-02T03:35:58.224Z,7.77
2023-04-02T03:41:06.658Z,8.28
2023-04-02T03:46:24.834Z,6.41
2023-04-02T03:51:32.566Z,7.36
2023-04-02T03:56:40.482Z,8.43
2023-04-02T04:02:06.353Z,8.05
2023-04-02T04:07:31.182Z,5.48
2023-04-02T04:12:37.015Z,5.42
2023-04-02T04:18:03.409Z,7.59
2023-04-02T04:23:15.992Z,8.39
2023-04-02T04:28:44.152Z,6.23
2023-04-02T04:33:54.903Z,5.59
2023-04-02T04:39:05.711Z,7.88
2023-04-02T04:44:19.112Z,8.39
2023-04-02T04:49:43.447Z,6.08
2023-04-02T04:54:47.142Z,6.81
2023-04-02T05:00:07.376Z,7.59
2023-04-02T05:05:25.284Z,7.99
2023-04-02T05:10:45.186Z,8.24
2023-04-02T05:16:11.338Z,6.81
2023-04-02T05:21:21.779Z,7.78
2023-04-02T05:26:31.010Z,7.96
2023-04-02T05:31:56.061Z,8.18
2023-04-02T05:36:59.151Z,6.27
2023-04-02T05:42:08.412Z,6.95
2023-04-02T05:47:21.275Z,7.49
2023-04-02T05:52:30.229Z,7.63
2023-04-02T05:57:46.915Z,8.15
2023-04-02T06:03:01.074Z,7.41
2023-04-02T06:08:11.261Z,6.94
2023-04-02T06:13:18.724Z,7.70
2023-04-02T06:18:27.780Z,7.90
2023-04-02T06:24:05.558Z,8.21
2023-04-02T06:29:24.202Z,7.80
2023-04-02T06:34:29.859Z,7.13
2023-04-02T06:39:32.642Z,8.18
2023-04-02T06:44:37.650Z,7.94
2023-04-02T06:49:47.168Z,6.63
2023-04-02T06:54:50.084Z,7.64
2023-04-02T06:59:53.329Z,7.71
2023-04-02T07:05:04.659Z,7.89
2023-04-02T07:10:09.368Z,7.58
2023-04-02T07:15:19.939Z,7.56
2023-04-02T07:20:34.006Z,7.50
2023-04-02T07:25:37.064Z,7.81
2023-04-02T07:30:41.979Z,8.02
2023-04-02T07:35:46.252Z,8.25
2023-04-02T07:40:49.408Z,8.04
2023-04-02T07:45:52.257Z,8.13
2023-04-02T07:50:55.086Z,7.30
2023-04-02T07:56:01.548Z,8.21
2023-04-02T08:01:05.462Z,8.50
2023-04-02T08:06:08.569Z,7.07
2023-04-02T08:11:11.881Z,7.57
2023-04-02T08:16:14.845Z,8.44
2023-04-02T08:21:17.844Z,8.57
2023-04-02T08:26:21.182Z,7.63
2023-04-02T08:31:24.569Z,7.73
2023-04-02T08:36:31.110Z,8.63
2023-04-02T08:41:44.376Z,7.41
2023-04-02T08:47:14.504Z,8.60
2023-04-02T08:52:24.116Z,8.31
2023-04-02T08:57:36.870Z,7.59
2023-04-02T09:02:44.555Z,8.94
2023-04-02T09:07:50.861Z,7.45
2023-04-02T09:12:53.805Z,7.83
2023-04-02T09:18:17.738Z,8.82
2023-04-02T09:23:23.882Z,7.47
2023-04-02T09:28:27.719Z,8.44
2023-04-02T09:33:51.620Z,8.69
2023-04-02T09:39:06.874Z,7.85
2023-04-02T09:44:23.755Z,8.70
2023-04-02T09:49:28.737Z,7.40
2023-04-02T09:54:33.684Z,8.70
2023-04-02T09:59:37.568Z,7.43
2023-04-02T10:04:47.982Z,7.27
2023-04-02T10:10:01.990Z,8.81
2023-04-02T10:15:06.851Z,8.10
2023-04-02T10:20:23.046Z,7.53
2023-04-02T10:25:32.439Z,8.60
2023-04-02T10:30:58.428Z,7.98
2023-04-02T10:36:16.400Z,8.96
2023-04-02T10:41:40.063Z,8.62
2023-04-02T10:47:00.767Z,8.98
2023-04-02T10:52:32.169Z,9.69
2023-04-02T10:57:39.659Z,8.72
2023-04-02T11:03:02.852Z,9.60
2023-04-02T11:08:29.709Z,8.13
2023-04-02T11:13:42.389Z,9.12
2023-04-02T11:19:19.918Z,8.08
2023-04-02T11:24:43.767Z,8.81
2023-04-02T11:29:53.682Z,8.03
2023-04-02T11:35:06.639Z,8.26
2023-04-02T11:40:13.999Z,8.32
2023-04-02T11:45:28.795Z,7.32
2023-04-02T11:50:34.538Z,7.84
2023-04-02T11:55:40.668Z,7.81
2023-04-02T12:01:05.393Z,7.14
2023-04-02T12:06:14.424Z,6.81
2023-04-02T12:11:35.161Z,6.67
2023-04-02T12:16:38.343Z,6.56
2023-04-02T12:21:47.958Z,6.61
2023-04-02T12:27:16.866Z,6.71
2023-04-02T12:32:31.198Z,6.70
2023-04-02T12:37:34.244Z,6.65
2023-04-02T12:42:39.271Z,6.67
2023-04-02T12:47:45.458Z,6.93
2023-04-02T12:52:51.942Z,7.01
2023-04-02T12:57:59.261Z,7.15
2023-04-02T13:03:16.979Z,7.13
2023-04-02T13:08:27.425Z,7.12
2023-04-02T13:13:39.446Z,7.00
2023-04-02T13:18:47.695Z,6.84
2023-04-02T13:23:51.058Z,6.72
2023-04-02T13:29:01.552Z,6.73
2023-04-02T13:34:04.396Z,6.72
2023-04-02T13:39:07.512Z,6.81
2023-04-02T13:44:19.561Z,6.76
2023-04-02T13:49:24.265Z,6.76
2023-04-02T13:54:48.951Z,6.80
2023-04-02T13:59:55.205Z,6.95
2023-04-02T14:05:13.535Z,7.02
2023-04-02T14:10:30.208Z,7.02
2023-04-02T14:16:24.940Z,6.92
2023-04-02T14:21:55.107Z,6.81
2023-04-02T14:27:23.790Z,6.84
2023-04-02T14:32:50.679Z,6.72
2023-04-02T14:38:21.098Z,6.70
2023-04-02T14:43:33.034Z,6.69
2023-04-02T14:48:59.202Z,6.61
2023-04-02T14:54:09.572Z,6.63
2023-04-02T14:59:22.022Z,6.59
2023-04-02T15:04:37.357Z,6.58
2023-04-02T15:09:49.203Z,6.62
2023-04-02T15:15:39.965Z,6.63
2023-04-02T15:20:54.182Z,6.72
2023-04-02T15:26:05.980Z,6.83
2023-04-02T15:31:13.602Z,6.87
2023-04-02T15:36:22.324Z,6.86
2023-04-02T15:41:38.170Z,6.85
2023-04-02T15:46:49.301Z,6.81
2023-04-02T15:52:16.533Z,6.73
2023-04-02T15:57:47.200Z,6.64
2023-04-02T16:03:29.525Z,6.48
2023-04-02T16:08:44.263Z,6.32
2023-04-02T16:13:47.601Z,6.19
2023-04-02T16:19:16.150Z,6.09
2023-04-02T16:24:20.011Z,6.24
2023-04-02T16:29:25.525Z,6.17
2023-04-02T16:34:37.123Z,6.04
2023-04-02T16:40:18.512Z,5.93
2023-04-02T16:45:50.000Z,5.77
2023-04-02T16:51:24.291Z,5.62
2023-04-02T16:56:40.775Z,5.48
2023-04-02T17:02:02.344Z,5.40
2023-04-02T17:07:38.098Z,5.24
2023-04-02T17:12:53.043Z,5.06
2023-04-02T17:18:00.646Z,4.92
2023-04-02T17:23:05.692Z,4.79
2023-04-02T17:28:18.747Z,4.66
2023-04-02T17:33:25.105Z,4.49
2023-04-02T17:39:06.951Z,4.32
2023-04-02T17:44:32.568Z,4.15
2023-04-02T17:49:56.824Z,4.00
2023-04-02T17:55:32.333Z,3.88
2023-04-02T18:00:47.403Z,3.75
2023-04-02T18:06:08.923Z,3.63
2023-04-02T18:11:30.949Z,3.52
2023-04-02T18:16:34.037Z,3.42
2023-04-02T18:22:02.966Z,3.38
2023-04-02T18:27:32.380Z,3.31
2023-04-02T18:32:59.570Z,3.20
2023-04-02T18:38:33.076Z,3.09
2023-04-02T18:44:07.692Z,3.02
2023-04-02T18:49:19.852Z,2.92
2023-04-02T18:54:30.064Z,2.83
2023-04-02T18:59:42.610Z,2.75
2023-04-02T19:04:53.237Z,2.69
2023-04-02T19:10:07.447Z,2.62
2023-04-02T19:15:18.967Z,2.54
2023-04-02T19:20:36.696Z,2.46
2023-04-02T19:25:42.728Z,2.40
2023-04-02T19:31:11.854Z,2.35
2023-04-02T19:36:45.467Z,2.28
2023-04-02T19:42:03.366Z,2.21
2023-04-02T19:47:06.191Z,2.25
2023-04-02T19:52:08.984Z,4.15
2023-04-02T19:57:16.569Z,3.59
2023-04-02T20:02:19.345Z,2.79
2023-04-02T20:07:22.390Z,2.36
2023-04-02T20:12:25.809Z,3.35
2023-04-02T20:17:29.437Z,3.78
2023-04-02T20:22:32.265Z,2.79
2023-04-02T20:27:35.524Z,2.52
2023-04-02T20:32:38.457Z,4.96
2023-04-02T20:37:42.414Z,4.27
2023-04-02T20:42:45.416Z,2.96
2023-04-02T20:47:48.273Z,2.35
2023-04-02T20:52:51.910Z,4.31
2023-04-02T20:57:55.040Z,3.95
2023-04-02T21:03:01.441Z,2.74
2023-04-02T21:08:04.621Z,2.43
2023-04-02T21:13:07.650Z,3.97
2023-04-02T21:18:10.472Z,2.90
2023-04-02T21:23:15.495Z,2.36
2023-04-02T21:28:18.288Z,4.30
2023-04-02T21:33:21.107Z,3.19
2023-04-02T21:38:23.980Z,2.30
2023-04-02T21:43:26.786Z,2.81
2023-04-02T21:48:30.328Z,4.11
2023-04-02T21:53:33.646Z,2.80
2023-04-02T21:58:36.479Z,2.05
2023-04-02T22:03:39.888Z,3.97
2023-04-02T22:08:44.222Z,4.46
2023-04-02T22:13:48.730Z,2.83
2023-04-02T22:18:53.223Z,2.79
2023-04-02T22:23:56.550Z,4.93
2023-04-02T22:29:00.644Z,3.26
2023-04-02T22:34:05.586Z,2.16
2023-04-02T22:39:10.534Z,3.65
2023-04-02T22:44:16.495Z,2.82
2023-04-02T22:49:19.637Z,1.77
2023-04-02T22:54:22.554Z,2.53
2023-04-02T22:59:25.748Z,3.27
2023-04-02T23:04:28.474Z,1.97
2023-04-02T23:09:31.430Z,1.34
2023-04-02T23:14:34.184Z,2.42
2023-04-02T23:19:37.004Z,3.48
2023-04-02T23:24:39.729Z,2.12
2023-04-02T23:29:42.485Z,1.35
2023-04-02T23:34:45.358Z,0.94
2023-04-02T23:39:48.141Z,1.88
2023-04-02T23:44:50.979Z,2.75
2023-04-02T23:49:53.955Z,1.61
2023-04-02T23:54:56.715Z,1.00
2023-04-02T23:59:59.889Z,0.68
